Time;durP1;ratioP1;P1;durP2;ratioP2;P2;SDS_P1;SDS_P2;PMS_P1;PMS_P2;Temp;Humidity;BMP_temperature;BMP_pressure;BME280_temperature;BME280_humidity;BME280_pressure;Samples;Min_cycle;Max_cycle;Signal;HPM_P1;HPM_P2
2021/11/24 05:35:39;;;;;;;24.98;18.17;;;;;;;;;;4719998;27;11973988;-80
2021/11/24 05:43:36;;;;;;;22.98;16.60;;;;;;;;;;5615602;22;20114;-76
2021/11/24 05:48:47;;;;;;;31.50;16.95;;;;;;;;;;5098446;28;20063;-79
2021/11/24 05:51:14;;;;;;;24.20;16.85;;;;;;;;;;5086909;28;20067;-77
2021/11/24 05:53:40;;;;;;;22.23;15.90;;;;;;;;;;5059508;28;20029;-79
2021/11/24 05:56:07;;;;;;;26.25;16.52;;;;;;;;;;5061811;28;20501;-78
2021/11/24 07:48:29;;;;;;;44.40;25.25;;;;;;;;;;5135561;23;20060;-80
2021/11/24 07:51:19;;;;;;;39.45;25.77;;;;;;;;;;5157815;23;20118;-77
2021/11/24 07:53:48;;;;;;;46.78;26.23;;;;;;;;;;4995852;28;20097;-76
2021/11/24 07:56:14;;;;;;;38.58;24.40;;;;;;;;;;4995220;28;20468;-77
2021/11/24 07:58:41;;;;;;;37.20;24.42;;;;;;;;;;4965711;28;20369;-74
2021/11/24 08:01:08;;;;;;;38.88;24.83;;;;;;;;;;4962938;28;20050;-78
2021/11/24 08:03:35;;;;;;;37.70;24.65;;;;;;;;;;4987820;28;20480;-76
2021/11/24 08:06:01;;;;;;;42.85;31.48;;;;;;;;;;4990997;28;20029;-76
2021/11/24 08:08:27;;;;;;;47.88;33.10;;;;;;;;;;4989701;28;20032;-77
2021/11/24 08:11:02;;;;;;;44.72;28.98;;;;;;;;;;4996635;28;20007;-77
2021/11/24 08:13:29;;;;;;;42.53;30.35;;;;;;;;;;4985949;28;20030;-75
2021/11/24 08:15:55;;;;;;;43.53;29.27;;;;;;;;;;4974712;28;20385;-74
2021/11/24 08:18:21;;;;;;;50.28;28.02;;;;;;;;;;4993365;28;20034;-74
2021/11/24 08:20:48;;;;;;;43.53;28.10;;;;;;;;;;4990660;28;20033;-77
2021/11/24 08:23:14;;;;;;;43.00;27.55;;;;;;;;;;4976744;28;20500;-75
2021/11/24 08:25:40;;;;;;;38.80;26.08;;;;;;;;;;4992497;28;20042;-78
2021/11/24 08:28:06;;;;;;;41.58;27.02;;;;;;;;;;4999069;28;20077;-73
2021/11/24 08:30:32;;;;;;;49.40;28.98;;;;;;;;;;4995708;28;20069;-74
2021/11/24 08:32:59;;;;;;;40.15;25.90;;;;;;;;;;5020043;28;20032;-74
2021/11/24 08:35:25;;;;;;;43.75;26.10;;;;;;;;;;5022359;28;20488;-76
2021/11/24 08:37:52;;;;;;;41.88;25.55;;;;;;;;;;5008119;28;20030;-76
2021/11/24 08:40:18;;;;;;;42.60;24.60;;;;;;;;;;5011987;28;20025;-76
2021/11/24 08:42:45;;;;;;;37.97;22.52;;;;;;;;;;5011016;28;20030;-76
2021/11/24 08:45:11;;;;;;;28.73;19.90;;;;;;;;;;5007070;28;20033;-76
2021/11/24 08:47:39;;;;;;;37.47;22.85;;;;;;;;;;5015777;28;20030;-76
2021/11/24 08:50:06;;;;;;;30.88;19.98;;;;;;;;;;5029608;28;20029;-75
2021/11/24 08:52:33;;;;;;;28.25;19.67;;;;;;;;;;5007932;28;20089;-78
2021/11/24 08:55:11;;;;;;;34.35;21.63;;;;;;;;;;5003801;28;20038;-76
2021/11/24 08:57:38;;;;;;;32.78;20.88;;;;;;;;;;5015715;28;20099;-74
2021/11/24 09:00:08;;;;;;;48.53;22.13;;;;;;;;;;5007730;28;20026;-76
2021/11/24 09:02:34;;;;;;;32.38;21.65;;;;;;;;;;4999618;28;20030;-76
2021/11/24 09:05:02;;;;;;;33.17;22.00;;;;;;;;;;5015064;28;20030;-75
2021/11/24 09:07:28;;;;;;;36.45;26.08;;;;;;;;;;5015339;28;20030;-77
2021/11/24 09:09:54;;;;;;;31.48;21.85;;;;;;;;;;4995471;28;20034;-75
2021/11/24 09:12:23;;;;;;;37.80;23.73;;;;;;;;;;5006490;28;20037;-74
2021/11/24 09:14:49;;;;;;;37.95;25.38;;;;;;;;;;4989839;28;20043;-76
2021/11/24 09:17:15;;;;;;;37.53;25.60;;;;;;;;;;5003958;28;20101;-75
2021/11/24 09:19:41;;;;;;;39.08;27.42;;;;;;;;;;5002927;28;20022;-74
2021/11/24 09:22:07;;;;;;;40.13;25.55;;;;;;;;;;5004667;28;20037;-73
2021/11/24 09:24:36;;;;;;;37.00;24.95;;;;;;;;;;4996549;28;20030;-73
2021/11/24 09:27:05;;;;;;;33.10;23.65;;;;;;;;;;5012500;28;20080;-72
2021/11/24 09:29:31;;;;;;;34.45;24.20;;;;;;;;;;4998995;28;20404;-73
2021/11/24 09:31:57;;;;;;;33.20;24.30;;;;;;;;;;5002834;28;20033;-76
2021/11/24 09:34:25;;;;;;;34.47;24.33;;;;;;;;;;5004111;28;20033;-75
2021/11/24 09:36:51;;;;;;;34.70;24.88;;;;;;;;;;4983942;28;20030;-74
2021/11/24 09:39:17;;;;;;;35.03;24.02;;;;;;;;;;4989805;28;20032;-76
2021/11/24 09:41:46;;;;;;;30.95;22.48;;;;;;;;;;5011028;28;20034;-76
2021/11/24 09:44:13;;;;;;;40.83;25.95;;;;;;;;;;4994231;28;20060;-75
2021/11/24 09:46:46;;;;;;;34.25;22.40;;;;;;;;;;4994185;28;20026;-76
2021/11/24 09:49:13;;;;;;;28.52;21.23;;;;;;;;;;4982482;28;20441;-74
2021/11/24 09:51:40;;;;;;;25.55;19.20;;;;;;;;;;5002542;28;20051;-75
2021/11/24 09:54:06;;;;;;;29.58;18.35;;;;;;;;;;4980933;28;20030;-75
2021/11/24 09:56:33;;;;;;;26.08;18.52;;;;;;;;;;5002594;28;20057;-76
2021/11/24 09:58:59;;;;;;;22.02;16.45;;;;;;;;;;5007314;28;20022;-76
2021/11/24 10:01:25;;;;;;;21.25;15.23;;;;;;;;;;5011775;28;20058;-76
2021/11/24 10:03:51;;;;;;;22.23;15.35;;;;;;;;;;4996738;28;20038;-76
2021/11/24 10:06:17;;;;;;;19.73;15.35;;;;;;;;;;5014900;28;20026;-76
2021/11/24 10:08:45;;;;;;;20.23;15.15;;;;;;;;;;5026495;28;20046;-78
2021/11/24 10:11:12;;;;;;;25.58;16.25;;;;;;;;;;5029461;28;20014;-77
2021/11/24 10:13:38;;;;;;;22.88;15.73;;;;;;;;;;5013846;28;20089;-75
2021/11/24 10:16:04;;;;;;;20.48;15.20;;;;;;;;;;5023759;28;20025;-76
2021/11/24 10:18:32;;;;;;;22.45;15.45;;;;;;;;;;5016568;28;20039;-75
2021/11/24 10:20:58;;;;;;;21.67;15.40;;;;;;;;;;5009326;28;20041;-73
2021/11/24 10:23:35;;;;;;;21.77;15.63;;;;;;;;;;5023205;28;20045;-79
2021/11/24 10:26:14;;;;;;;23.30;17.17;;;;;;;;;;5011706;28;20064;-74
2021/11/24 10:28:40;;;;;;;25.48;17.70;;;;;;;;;;4993284;28;20022;-77
2021/11/24 10:31:22;;;;;;;22.30;15.45;;;;;;;;;;5026680;28;20022;-77
2021/11/24 10:33:48;;;;;;;22.73;15.90;;;;;;;;;;5012005;28;20066;-75
2021/11/24 10:36:14;;;;;;;21.92;14.70;;;;;;;;;;5007969;28;20041;-76
2021/11/24 10:38:43;;;;;;;23.00;16.15;;;;;;;;;;5012868;28;20022;-78
2021/11/24 10:41:10;;;;;;;22.52;15.88;;;;;;;;;;5026211;28;20045;-77
2021/11/24 10:43:41;;;;;;;26.13;17.15;;;;;;;;;;5022037;28;20018;-76
2021/11/24 10:46:08;;;;;;;21.83;15.50;;;;;;;;;;5011824;28;20033;-73
2021/11/24 10:48:34;;;;;;;20.90;16.35;;;;;;;;;;5018525;28;20022;-79
2021/11/24 10:51:02;;;;;;;22.80;15.05;;;;;;;;;;5012623;28;20029;-75
2021/11/24 10:53:28;;;;;;;24.45;17.10;;;;;;;;;;5034217;28;20045;-76
2021/11/24 10:55:55;;;;;;;25.35;17.25;;;;;;;;;;5034676;28;20049;-75
2021/11/24 10:58:26;;;;;;;26.67;18.75;;;;;;;;;;5013248;28;20029;-76
2021/11/24 11:00:54;;;;;;;27.67;18.30;;;;;;;;;;4997970;28;20448;-72
2021/11/24 11:03:26;;;;;;;27.30;18.80;;;;;;;;;;5006058;28;20049;-73
2021/11/24 11:05:54;;;;;;;27.42;18.85;;;;;;;;;;5014621;28;20068;-74
2021/11/24 11:08:22;;;;;;;24.95;19.10;;;;;;;;;;4987923;28;20100;-78
2021/11/24 11:10:49;;;;;;;28.25;20.52;;;;;;;;;;5024548;28;20054;-75
2021/11/24 11:13:23;;;;;;;27.88;19.85;;;;;;;;;;5015276;28;20027;-74
2021/11/24 11:15:49;;;;;;;;;;;;;;;;;;5028436;28;20109;-75
2021/11/24 11:18:17;;;;;;;29.30;19.73;;;;;;;;;;4992567;28;20001;-73
2021/11/24 11:20:46;;;;;;;26.95;19.75;;;;;;;;;;5008419;28;20038;-74
2021/11/24 11:23:26;;;;;;;30.73;20.98;;;;;;;;;;4996317;28;20017;-74
2021/11/24 11:25:55;;;;;;;30.13;20.50;;;;;;;;;;5021566;28;20030;-73
2021/11/24 11:28:23;;;;;;;29.35;19.50;;;;;;;;;;5017194;28;20038;-72
2021/11/24 11:30:51;;;;;;;29.25;20.58;;;;;;;;;;5019807;28;20030;-72
2021/11/24 11:33:19;;;;;;;28.25;21.48;;;;;;;;;;5010214;28;20031;-71
2021/11/24 11:35:46;;;;;;;29.65;20.25;;;;;;;;;;5018578;28;20022;-75
2021/11/24 11:38:12;;;;;;;31.30;22.55;;;;;;;;;;5017987;28;20089;-75
2021/11/24 11:40:40;;;;;;;30.50;22.10;;;;;;;;;;4987801;28;20485;-74
2021/11/24 11:43:07;;;;;;;33.63;23.38;;;;;;;;;;4984100;28;20037;-74
2021/11/24 11:45:34;;;;;;;32.58;21.95;;;;;;;;;;4981119;28;20412;-77
2021/11/24 11:48:02;;;;;;;29.38;21.67;;;;;;;;;;5013100;28;20531;-76
2021/11/24 11:50:48;;;;;;;29.02;20.88;;;;;;;;;;5011557;28;20065;-76
2021/11/24 11:53:18;;;;;;;31.52;21.77;;;;;;;;;;5001504;28;20053;-76
2021/11/24 11:55:45;;;;;;;36.92;22.98;;;;;;;;;;5032618;28;20030;-76
2021/11/24 11:58:28;;;;;;;31.15;22.70;;;;;;;;;;5004690;28;20478;-78
2021/11/24 12:01:10;;;;;;;29.73;22.10;;;;;;;;;;5008288;28;20080;-74
2021/11/24 12:03:56;;;;;;;30.50;21.73;;;;;;;;;;5011487;28;20045;-77
2021/11/24 12:06:27;;;;;;;38.83;22.77;;;;;;;;;;5013090;28;20026;-77
2021/11/24 12:09:11;;;;;;;34.90;22.48;;;;;;;;;;5012852;28;20491;-77
2021/11/24 12:11:56;;;;;;;33.53;23.50;;;;;;;;;;5015767;28;20041;-76
2021/11/24 12:14:45;;;;;;;34.40;23.70;;;;;;;;;;5009228;28;20017;-77
2021/11/24 12:19:55;;;;;;;34.15;24.38;;;;;;;;;;4940898;29;20504;-75
2021/11/24 12:22:40;;;;;;;35.90;24.40;;;;;;;;;;4940570;29;20071;-75
2021/11/24 12:25:06;;;;;;;32.85;23.00;;;;;;;;;;4941708;29;20075;-75
2021/11/24 12:27:54;;;;;;;39.58;24.80;;;;;;;;;;4925226;29;20044;-75
2021/11/24 12:30:47;;;;;;;34.50;23.20;;;;;;;;;;4924582;29;20031;-75
2021/11/24 12:33:33;;;;;;;34.25;23.30;;;;;;;;;;4944949;29;20039;-78
2021/11/24 12:36:08;;;;;;;31.40;22.48;;;;;;;;;;4944387;29;20043;-76
2021/11/24 12:38:54;;;;;;;35.00;23.95;;;;;;;;;;4908770;29;20039;-76
2021/11/24 12:41:25;;;;;;;39.08;24.48;;;;;;;;;;4928997;29;20175;-78
2021/11/24 12:43:54;;;;;;;34.83;23.40;;;;;;;;;;4931827;29;20039;-77
2021/11/24 12:46:37;;;;;;;29.80;20.35;;;;;;;;;;4945757;29;20088;-77
2021/11/24 12:49:11;;;;;;;30.77;21.95;;;;;;;;;;4944155;29;20036;-77
2021/11/24 12:51:39;;;;;;;28.38;20.88;;;;;;;;;;4938665;29;20035;-74
2021/11/24 12:54:12;;;;;;;35.72;23.40;;;;;;;;;;4974602;28;20038;-74
2021/11/24 12:56:40;;;;;;;35.85;25.55;;;;;;;;;;4997858;28;20026;-75
2021/11/24 12:59:12;;;;;;;32.00;21.67;;;;;;;;;;5010407;28;20082;-74
2021/11/24 13:01:39;;;;;;;30.77;21.95;;;;;;;;;;5004893;28;20081;-74
2021/11/24 13:04:07;;;;;;;34.20;23.80;;;;;;;;;;5013953;28;20037;-75
2021/11/24 13:06:36;;;;;;;31.13;22.55;;;;;;;;;;5004913;28;20030;-73
2021/11/24 13:09:07;;;;;;;166.05;90.10;;;;;;;;;;5015515;28;20084;-74
2021/11/24 13:11:34;;;;;;;33.53;24.30;;;;;;;;;;5010647;28;20030;-77
2021/11/24 13:14:03;;;;;;;35.80;23.75;;;;;;;;;;5013848;28;20030;-76
2021/11/24 13:16:32;;;;;;;35.50;24.13;;;;;;;;;;5004772;28;20026;-76
2021/11/24 13:19:01;;;;;;;34.47;23.55;;;;;;;;;;4959222;28;20112;-77
2021/11/24 13:21:35;;;;;;;37.55;23.00;;;;;;;;;;4950375;28;20074;-75
2021/11/24 13:24:03;;;;;;;33.35;23.55;;;;;;;;;;4955568;28;20047;-75
2021/11/24 13:26:32;;;;;;;30.60;19.92;;;;;;;;;;4946568;28;20028;-73
2021/11/24 13:28:58;;;;;;;33.90;23.30;;;;;;;;;;4949702;28;20028;-74
2021/11/24 13:31:25;;;;;;;34.08;21.88;;;;;;;;;;4952398;28;20027;-77
2021/11/24 13:33:51;;;;;;;34.28;23.23;;;;;;;;;;4957430;28;20043;-77
2021/11/24 13:36:19;;;;;;;29.30;20.05;;;;;;;;;;4959775;28;20086;-77
2021/11/24 13:38:58;;;;;;;32.85;22.77;;;;;;;;;;4938907;29;20031;-77
2021/11/24 13:41:32;;;;;;;29.25;21.30;;;;;;;;;;4956844;28;20111;-77
2021/11/24 13:44:01;;;;;;;32.00;22.63;;;;;;;;;;4960603;28;20114;-78
2021/11/24 13:46:29;;;;;;;31.20;21.50;;;;;;;;;;4923758;29;20123;-77
2021/11/24 13:49:25;;;;;;;31.80;21.83;;;;;;;;;;4919407;29;20115;-77
2021/11/24 13:52:05;;;;;;;32.13;21.48;;;;;;;;;;4835938;29;20049;-77
2021/11/24 13:54:38;;;;;;;31.80;22.55;;;;;;;;;;4835595;29;20037;-77
2021/11/24 13:57:05;;;;;;;32.38;21.83;;;;;;;;;;4851142;29;20065;-77
2021/11/24 13:59:33;;;;;;;30.85;21.15;;;;;;;;;;4850569;29;20041;-76
2021/11/24 14:02:10;;;;;;;30.08;21.67;;;;;;;;;;4859833;29;20040;-77
2021/11/24 14:04:37;;;;;;;31.52;21.65;;;;;;;;;;4911420;29;20029;-77
2021/11/24 14:07:05;;;;;;;31.45;22.65;;;;;;;;;;4895346;29;20036;-77
2021/11/24 14:09:32;;;;;;;32.42;21.33;;;;;;;;;;4906166;29;20040;-76
2021/11/24 14:12:10;;;;;;;31.02;20.67;;;;;;;;;;4906121;29;20108;-76
2021/11/24 14:14:55;;;;;;;33.65;21.33;;;;;;;;;;4906415;29;20040;-77
2021/11/24 14:17:39;;;;;;;34.63;22.13;;;;;;;;;;4923644;29;20044;-76
2021/11/24 14:20:08;;;;;;;31.13;21.73;;;;;;;;;;4941687;29;20102;-76
2021/11/24 14:22:35;;;;;;;29.35;21.08;;;;;;;;;;4944876;29;20070;-76
2021/11/24 14:25:01;;;;;;;33.85;23.08;;;;;;;;;;4925664;29;20454;-76
2021/11/24 14:27:27;;;;;;;40.10;26.95;;;;;;;;;;4952866;28;20191;-76
2021/11/24 14:29:54;;;;;;;42.03;27.67;;;;;;;;;;5004234;28;20030;-77
2021/11/24 14:32:20;;;;;;;42.30;27.95;;;;;;;;;;4987720;28;20046;-76
2021/11/24 14:34:46;;;;;;;42.35;28.52;;;;;;;;;;5008608;28;20018;-76
2021/11/24 14:37:12;;;;;;;46.58;29.85;;;;;;;;;;5007896;28;20034;-76
2021/11/24 14:39:38;;;;;;;41.13;27.25;;;;;;;;;;5023210;28;20082;-77
2021/11/24 14:42:07;;;;;;;44.70;28.33;;;;;;;;;;5007673;28;20033;-77
2021/11/24 14:44:34;;;;;;;46.72;28.60;;;;;;;;;;5021147;28;20049;-76
2021/11/24 14:47:00;;;;;;;36.30;24.30;;;;;;;;;;5019866;28;20120;-76
2021/11/24 14:49:28;;;;;;;40.45;26.52;;;;;;;;;;5012281;28;20030;-76
2021/11/24 14:51:54;;;;;;;45.28;28.67;;;;;;;;;;5007748;28;20092;-76
2021/11/24 14:54:20;;;;;;;48.80;27.60;;;;;;;;;;5003702;28;20030;-76
2021/11/24 14:56:47;;;;;;;48.53;29.25;;;;;;;;;;5003246;28;20074;-76
2021/11/24 14:59:17;;;;;;;52.28;31.33;;;;;;;;;;5001043;28;20050;-77
2021/11/24 15:01:45;;;;;;;55.92;33.50;;;;;;;;;;4997208;28;20035;-76
2021/11/24 15:04:15;;;;;;;67.35;36.75;;;;;;;;;;4996962;28;20503;-76
2021/11/24 15:06:58;;;;;;;63.65;38.38;;;;;;;;;;5072508;23;20062;-72
2021/11/24 15:09:24;;;;;;;61.80;38.60;;;;;;;;;;4983409;28;20468;-74
2021/11/24 15:11:52;;;;;;;62.15;37.88;;;;;;;;;;4997951;28;20042;-80
2021/11/24 15:14:19;;;;;;;62.92;39.90;;;;;;;;;;5005260;28;20041;-74
2021/11/24 15:16:45;;;;;;;62.67;38.03;;;;;;;;;;5006854;28;20026;-74
2021/11/24 15:19:14;;;;;;;59.75;36.80;;;;;;;;;;4997478;28;20022;-73
2021/11/24 15:21:40;;;;;;;78.40;47.13;;;;;;;;;;4976230;28;20042;-73
2021/11/24 15:24:07;;;;;;;84.45;49.03;;;;;;;;;;4976812;28;20456;-74
2021/11/24 15:26:34;;;;;;;67.90;42.08;;;;;;;;;;4977020;28;20125;-77
2021/11/24 15:29:04;;;;;;;60.70;39.33;;;;;;;;;;4977168;28;20086;-74
2021/11/24 15:31:30;;;;;;;63.78;41.22;;;;;;;;;;4975533;28;20023;-76
2021/11/24 15:33:56;;;;;;;72.47;42.00;;;;;;;;;;4975263;28;20027;-74
2021/11/24 15:36:24;;;;;;;81.32;45.63;;;;;;;;;;4975523;28;20535;-75
2021/11/24 15:38:53;;;;;;;78.13;44.63;;;;;;;;;;4976428;28;20027;-72
2021/11/24 15:41:24;;;;;;;61.00;38.22;;;;;;;;;;4958651;28;20109;-73
2021/11/24 15:43:50;;;;;;;51.67;33.03;;;;;;;;;;4976080;28;20046;-72
2021/11/24 15:46:22;;;;;;;50.03;32.85;;;;;;;;;;4976119;28;20023;-73
2021/11/24 15:48:48;;;;;;;52.35;33.42;;;;;;;;;;4972353;28;20027;-74
2021/11/24 15:51:15;;;;;;;57.40;33.47;;;;;;;;;;4957120;28;20031;-72
2021/11/24 15:53:41;;;;;;;51.25;30.83;;;;;;;;;;4975836;28;20437;-71
2021/11/24 15:56:08;;;;;;;51.28;32.75;;;;;;;;;;4976221;28;20099;-72
2021/11/24 15:58:34;;;;;;;48.45;30.58;;;;;;;;;;4975241;28;20093;-76
2021/11/24 16:01:01;;;;;;;50.40;32.35;;;;;;;;;;4958483;28;20026;-72
2021/11/24 16:03:27;;;;;;;51.75;31.33;;;;;;;;;;4976015;28;20026;-71
2021/11/24 16:05:53;;;;;;;52.00;32.97;;;;;;;;;;4976727;28;20043;-77
2021/11/24 16:08:19;;;;;;;56.58;32.70;;;;;;;;;;4956355;28;20085;-74
2021/11/24 16:10:45;;;;;;;56.17;32.60;;;;;;;;;;4974635;28;20069;-78
2021/11/24 16:13:13;;;;;;;51.08;31.88;;;;;;;;;;4985986;28;20030;-77
2021/11/24 16:15:39;;;;;;;53.05;34.47;;;;;;;;;;4965355;28;20035;-77
2021/11/24 16:18:06;;;;;;;61.60;38.42;;;;;;;;;;4984775;28;20372;-77
2021/11/24 16:20:32;;;;;;;54.75;36.08;;;;;;;;;;4961100;28;20030;-76
2021/11/24 16:22:59;;;;;;;54.08;34.40;;;;;;;;;;4959040;28;20043;-78
2021/11/24 16:25:37;;;;;;;56.05;35.70;;;;;;;;;;4962167;28;20047;-79
2021/11/24 16:28:03;;;;;;;55.90;33.88;;;;;;;;;;4942801;28;20039;-78
2021/11/24 16:30:30;;;;;;;45.63;30.67;;;;;;;;;;4944251;29;20035;-78
2021/11/24 16:32:57;;;;;;;72.60;43.08;;;;;;;;;;4944063;29;20379;-77
2021/11/24 16:35:23;;;;;;;54.67;32.72;;;;;;;;;;4957982;28;20097;-78
2021/11/24 16:37:49;;;;;;;80.80;53.67;;;;;;;;;;4958927;28;20131;-77
2021/11/24 16:40:16;;;;;;;64.57;37.25;;;;;;;;;;4939994;29;20071;-73
2021/11/24 16:42:42;;;;;;;55.22;35.28;;;;;;;;;;4957508;28;20031;-78
2021/11/24 16:45:09;;;;;;;57.10;36.85;;;;;;;;;;4955637;28;20410;-76
2021/11/24 16:47:35;;;;;;;56.70;35.63;;;;;;;;;;4948004;28;20023;-76
2021/11/24 16:50:01;;;;;;;88.05;47.92;;;;;;;;;;4957553;28;20031;-76
2021/11/24 16:52:29;;;;;;;82.22;45.45;;;;;;;;;;4943914;29;20446;-75
2021/11/24 16:54:56;;;;;;;77.25;43.15;;;;;;;;;;4943591;29;20040;-75
2021/11/24 16:57:22;;;;;;;63.35;38.65;;;;;;;;;;4978512;28;20038;-78
2021/11/24 16:59:48;;;;;;;62.33;37.13;;;;;;;;;;4959342;28;20031;-73
2021/11/24 17:02:19;;;;;;;56.50;34.53;;;;;;;;;;4971111;28;20046;-77
2021/11/24 17:04:46;;;;;;;54.17;33.03;;;;;;;;;;4973795;28;20092;-77
2021/11/24 17:07:12;;;;;;;50.65;30.60;;;;;;;;;;4953026;28;20065;-75
2021/11/24 17:09:38;;;;;;;47.70;29.75;;;;;;;;;;4972725;28;20034;-76
2021/11/24 17:12:04;;;;;;;49.13;30.35;;;;;;;;;;4969196;28;20060;-75
2021/11/24 17:14:31;;;;;;;48.88;31.25;;;;;;;;;;4973893;28;20149;-76
2021/11/24 17:17:06;;;;;;;46.25;28.73;;;;;;;;;;4960221;28;20031;-78
2021/11/24 17:19:38;;;;;;;46.35;28.85;;;;;;;;;;4961875;28;20066;-78
2021/11/24 17:22:04;;;;;;;41.33;26.95;;;;;;;;;;4957112;28;20557;-72
2021/11/24 17:24:33;;;;;;;43.83;29.42;;;;;;;;;;4973599;28;20039;-71
2021/11/24 17:26:59;;;;;;;45.20;27.48;;;;;;;;;;4974701;28;21406;-72
2021/11/24 17:29:27;;;;;;;42.42;27.10;;;;;;;;;;4950928;28;20039;-72
2021/11/24 17:31:54;;;;;;;44.28;27.73;;;;;;;;;;4969308;28;20167;-75
2021/11/24 17:34:20;;;;;;;43.28;27.63;;;;;;;;;;4958010;28;20043;-75
2021/11/24 17:36:46;;;;;;;39.10;26.25;;;;;;;;;;4966576;28;20465;-76
2021/11/24 17:39:12;;;;;;;44.63;28.05;;;;;;;;;;4953600;28;20031;-76
2021/11/24 17:41:38;;;;;;;42.35;27.70;;;;;;;;;;4952885;28;20051;-75
2021/11/24 17:44:05;;;;;;;46.80;28.35;;;;;;;;;;4972403;28;20034;-75
2021/11/24 17:46:31;;;;;;;44.22;29.55;;;;;;;;;;4970906;28;20026;-76
2021/11/24 17:48:57;;;;;;;45.17;29.00;;;;;;;;;;4955596;28;20031;-75
2021/11/24 17:51:23;;;;;;;46.75;29.35;;;;;;;;;;4980133;28;20428;-76
2021/11/24 17:53:49;;;;;;;47.65;28.63;;;;;;;;;;4959045;28;20034;-74
2021/11/24 17:56:16;;;;;;;40.95;27.35;;;;;;;;;;4978813;28;20057;-77
2021/11/24 17:58:44;;;;;;;43.45;27.63;;;;;;;;;;4957742;28;20067;-77
2021/11/24 18:01:12;;;;;;;39.83;26.38;;;;;;;;;;4955076;28;20046;-76
2021/11/24 18:03:39;;;;;;;41.17;26.80;;;;;;;;;;4972430;28;20122;-74
2021/11/24 18:06:05;;;;;;;38.88;25.38;;;;;;;;;;4991034;28;20046;-75
2021/11/24 18:08:31;;;;;;;45.88;27.83;;;;;;;;;;4963560;28;20163;-77
2021/11/24 18:10:57;;;;;;;48.05;28.27;;;;;;;;;;4961053;28;20086;-73
2021/11/24 18:13:24;;;;;;;45.38;28.30;;;;;;;;;;4978462;28;20019;-73
2021/11/24 18:15:50;;;;;;;45.03;28.13;;;;;;;;;;4956151;28;20460;-73
2021/11/24 18:18:16;;;;;;;46.70;27.17;;;;;;;;;;4955901;28;20070;-72
2021/11/24 18:20:42;;;;;;;44.40;27.10;;;;;;;;;;4974968;28;20090;-73
2021/11/24 18:23:09;;;;;;;42.92;28.40;;;;;;;;;;4976356;28;20173;-72
2021/11/24 18:25:36;;;;;;;43.65;28.63;;;;;;;;;;4974431;28;20114;-76
2021/11/24 18:28:02;;;;;;;45.00;28.33;;;;;;;;;;4979144;28;20030;-78
2021/11/24 18:30:28;;;;;;;44.75;28.65;;;;;;;;;;4959870;28;20093;-77
2021/11/24 18:32:54;;;;;;;48.03;29.85;;;;;;;;;;4972443;28;20106;-76
2021/11/24 18:35:23;;;;;;;59.15;39.05;;;;;;;;;;4965406;28;20459;-75
2021/11/24 18:37:49;;;;;;;51.97;32.58;;;;;;;;;;4982662;28;20023;-76
2021/11/24 18:40:16;;;;;;;61.97;38.17;;;;;;;;;;4995282;28;20026;-79
2021/11/24 18:42:42;;;;;;;61.92;37.67;;;;;;;;;;4978879;28;20115;-77
2021/11/24 18:45:12;;;;;;;49.92;32.00;;;;;;;;;;4979199;28;20045;-78
2021/11/24 18:47:39;;;;;;;81.50;45.72;;;;;;;;;;4988860;28;20050;-80
2021/11/24 18:50:07;;;;;;;51.50;31.52;;;;;;;;;;4979632;28;20059;-78
2021/11/24 18:52:33;;;;;;;50.17;30.48;;;;;;;;;;4973180;28;20003;-77
2021/11/24 18:54:59;;;;;;;46.05;28.60;;;;;;;;;;4996461;28;20057;-77
2021/11/24 18:57:25;;;;;;;51.00;31.27;;;;;;;;;;5000029;28;20038;-78
2021/11/24 18:59:52;;;;;;;49.30;31.77;;;;;;;;;;4983986;28;20397;-78
2021/11/24 19:02:19;;;;;;;46.67;30.85;;;;;;;;;;4981976;28;20515;-76
2021/11/24 19:04:50;;;;;;;49.25;31.50;;;;;;;;;;4985248;28;20049;-78
2021/11/24 19:07:16;;;;;;;50.03;30.38;;;;;;;;;;4976826;28;20493;-77
2021/11/24 19:09:42;;;;;;;52.42;31.23;;;;;;;;;;4985958;28;20031;-74
2021/11/24 19:12:09;;;;;;;54.85;33.58;;;;;;;;;;4996360;28;20061;-77
2021/11/24 19:14:35;;;;;;;55.40;34.80;;;;;;;;;;4971899;28;20030;-78
2021/11/24 19:17:02;;;;;;;54.13;33.60;;;;;;;;;;4987272;28;20038;-79
2021/11/24 19:19:28;;;;;;;49.28;30.70;;;;;;;;;;4973420;28;20038;-77
2021/11/24 19:21:56;;;;;;;59.03;35.25;;;;;;;;;;4963584;28;20531;-73
2021/11/24 19:24:23;;;;;;;53.13;32.33;;;;;;;;;;4987046;28;20030;-76
2021/11/24 19:26:49;;;;;;;57.05;35.65;;;;;;;;;;4966301;28;20035;-78
2021/11/24 19:29:15;;;;;;;60.00;38.17;;;;;;;;;;4977792;28;20098;-78
2021/11/24 19:31:41;;;;;;;59.13;37.95;;;;;;;;;;4969409;28;20034;-74
2021/11/24 19:34:08;;;;;;;52.72;34.60;;;;;;;;;;4973109;28;20035;-77
2021/11/24 19:36:34;;;;;;;61.17;37.17;;;;;;;;;;4960592;28;20027;-75
2021/11/24 19:39:02;;;;;;;57.85;36.10;;;;;;;;;;4958371;28;20118;-75
2021/11/24 19:41:29;;;;;;;64.60;38.17;;;;;;;;;;4959083;28;20097;-75
2021/11/24 19:43:57;;;;;;;63.40;38.28;;;;;;;;;;4975442;28;20098;-75
2021/11/24 19:46:23;;;;;;;60.38;36.20;;;;;;;;;;4957742;28;20049;-75
2021/11/24 19:48:49;;;;;;;58.53;35.65;;;;;;;;;;4954669;28;20054;-75
2021/11/24 19:51:15;;;;;;;60.47;35.90;;;;;;;;;;4976298;28;20026;-75
2021/11/24 19:53:42;;;;;;;58.97;35.70;;;;;;;;;;4959275;28;20027;-76
2021/11/24 19:56:14;;;;;;;53.95;33.42;;;;;;;;;;4977543;28;20067;-75
2021/11/24 19:58:46;;;;;;;57.10;34.42;;;;;;;;;;4977253;28;20073;-75
2021/11/24 20:01:13;;;;;;;55.80;35.80;;;;;;;;;;4975197;28;20077;-75
2021/11/24 20:03:39;;;;;;;54.55;33.55;;;;;;;;;;4974299;28;20038;-74
2021/11/24 20:06:05;;;;;;;62.03;35.40;;;;;;;;;;4976041;28;20051;-75
2021/11/24 20:08:31;;;;;;;55.95;33.83;;;;;;;;;;4976504;28;20024;-75
2021/11/24 20:10:58;;;;;;;61.65;36.53;;;;;;;;;;4976128;28;20027;-75
2021/11/24 20:13:24;;;;;;;60.17;34.85;;;;;;;;;;4976524;28;20439;-75
2021/11/24 20:15:51;;;;;;;62.58;36.08;;;;;;;;;;4976377;28;20109;-75
2021/11/24 20:18:17;;;;;;;65.50;36.78;;;;;;;;;;4978397;28;20019;-75
2021/11/24 20:20:43;;;;;;;59.42;35.28;;;;;;;;;;4979418;28;20042;-75
2021/11/24 20:23:09;;;;;;;65.47;36.65;;;;;;;;;;4977271;28;20087;-75
2021/11/24 20:25:35;;;;;;;59.15;34.42;;;;;;;;;;4970152;28;20567;-74
2021/11/24 20:28:03;;;;;;;60.67;36.03;;;;;;;;;;4959296;29;20031;-75
2021/11/24 20:30:31;;;;;;;60.17;36.60;;;;;;;;;;4963028;28;20023;-75
2021/11/24 20:32:57;;;;;;;59.80;34.70;;;;;;;;;;4981453;28;20041;-75
2021/11/24 20:35:23;;;;;;;62.35;35.70;;;;;;;;;;4975942;28;20544;-75
2021/11/24 20:37:50;;;;;;;57.40;34.05;;;;;;;;;;4957945;28;20539;-75
2021/11/24 20:40:17;;;;;;;59.72;33.38;;;;;;;;;;4971242;28;20477;-74
2021/11/24 20:42:45;;;;;;;60.00;33.53;;;;;;;;;;4977150;28;20069;-75
2021/11/24 20:45:12;;;;;;;58.00;33.08;;;;;;;;;;4976553;28;20448;-74
2021/11/24 20:47:39;;;;;;;56.42;33.15;;;;;;;;;;4977369;28;20019;-74
2021/11/24 20:50:06;;;;;;;58.78;35.47;;;;;;;;;;4980461;28;20027;-75
2021/11/24 20:52:32;;;;;;;51.75;31.58;;;;;;;;;;4979394;28;20181;-75
2021/11/24 20:54:58;;;;;;;58.40;31.70;;;;;;;;;;4976881;28;20026;-74
2021/11/24 20:57:25;;;;;;;48.65;29.50;;;;;;;;;;4961744;28;20034;-74
2021/11/24 20:59:51;;;;;;;50.55;31.45;;;;;;;;;;4976172;28;20035;-74
2021/11/24 21:02:17;;;;;;;47.72;30.88;;;;;;;;;;4977013;28;20023;-74
2021/11/24 21:04:47;;;;;;;46.95;29.33;;;;;;;;;;4979981;28;20034;-74
2021/11/24 21:07:17;;;;;;;49.55;29.92;;;;;;;;;;4980552;28;20086;-74
2021/11/24 21:09:44;;;;;;;51.80;29.10;;;;;;;;;;4979629;28;20039;-75
2021/11/24 21:12:11;;;;;;;53.08;31.63;;;;;;;;;;4974322;28;20018;-74
2021/11/24 21:14:37;;;;;;;55.00;32.30;;;;;;;;;;4974053;28;20027;-74
2021/11/24 21:17:04;;;;;;;54.53;31.60;;;;;;;;;;4975367;28;20035;-74
2021/11/24 21:19:32;;;;;;;54.95;31.50;;;;;;;;;;4975688;28;20499;-74
2021/11/24 21:21:59;;;;;;;46.72;28.80;;;;;;;;;;4975365;28;20496;-74
2021/11/24 21:24:27;;;;;;;54.08;31.83;;;;;;;;;;4974905;28;20073;-74
2021/11/24 21:26:58;;;;;;;55.58;32.70;;;;;;;;;;4975368;28;20357;-74
2021/11/24 21:29:26;;;;;;;61.13;33.70;;;;;;;;;;4974598;28;20045;-74
2021/11/24 21:31:55;;;;;;;58.08;34.80;;;;;;;;;;4980593;28;20057;-74
2021/11/24 21:34:22;;;;;;;59.75;34.05;;;;;;;;;;4981897;28;20023;-75
2021/11/24 21:36:50;;;;;;;59.67;34.83;;;;;;;;;;4982468;28;20098;-75
2021/11/24 21:39:16;;;;;;;58.15;32.30;;;;;;;;;;4975759;28;20101;-74
2021/11/24 21:41:43;;;;;;;51.80;30.92;;;;;;;;;;4974645;28;20038;-73
2021/11/24 21:44:09;;;;;;;53.95;32.15;;;;;;;;;;4978471;28;20047;-75
2021/11/24 21:46:35;;;;;;;54.83;30.70;;;;;;;;;;4975959;28;20027;-75
2021/11/24 21:49:03;;;;;;;58.03;35.28;;;;;;;;;;4975181;28;20380;-74
2021/11/24 21:51:30;;;;;;;53.60;33.10;;;;;;;;;;4976095;28;20027;-74
2021/11/24 21:53:56;;;;;;;57.28;34.63;;;;;;;;;;4973144;28;20027;-75
2021/11/24 21:56:23;;;;;;;75.13;44.08;;;;;;;;;;4979641;28;20034;-74
2021/11/24 21:58:54;;;;;;;58.60;35.20;;;;;;;;;;4980478;28;20354;-74